sensor_id;sensor_type;location;lat;lon;timestamp;P1;durP1;ratioP1;P2;durP2;ratioP2
60169;SDS011;46042;49.444;6.862;2023-11-19T00:01:58;6.97;;;4.28;;
60169;SDS011;46042;49.444;6.862;2023-11-19T00:04:25;4.53;;;2.20;;
60169;SDS011;46042;49.444;6.862;2023-11-19T00:06:51;1.95;;;1.70;;
60169;SDS011;46042;49.444;6.862;2023-11-19T00:09:18;2.13;;;1.65;;
60169;SDS011;46042;49.444;6.862;2023-11-19T00:11:45;2.30;;;1.60;;
60169;SDS011;46042;49.444;6.862;2023-11-19T00:14:20;1.52;;;1.42;;
60169;SDS011;46042;49.444;6.862;2023-11-19T00:16:46;2.05;;;1.50;;
60169;SDS011;46042;49.444;6.862;2023-11-19T00:19:13;2.08;;;1.60;;
60169;SDS011;46042;49.444;6.862;2023-11-19T00:21:40;5.35;;;1.40;;
60169;SDS011;46042;49.444;6.862;2023-11-19T00:24:07;1.60;;;1.30;;
60169;SDS011;46042;49.444;6.862;2023-11-19T00:26:34;1.70;;;1.58;;
60169;SDS011;46042;49.444;6.862;2023-11-19T00:29:01;2.03;;;1.35;;
60169;SDS011;46042;49.444;6.862;2023-11-19T00:31:28;1.70;;;1.60;;
60169;SDS011;46042;49.444;6.862;2023-11-19T00:33:55;1.55;;;1.42;;
60169;SDS011;46042;49.444;6.862;2023-11-19T00:36:22;1.90;;;1.65;;
60169;SDS011;46042;49.444;6.862;2023-11-19T00:38:50;5.50;;;2.30;;
60169;SDS011;46042;49.444;6.862;2023-11-19T00:41:19;10.70;;;2.30;;
60169;SDS011;46042;49.444;6.862;2023-11-19T00:43:46;3.05;;;2.10;;
60169;SDS011;46042;49.444;6.862;2023-11-19T00:46:12;2.38;;;1.80;;
60169;SDS011;46042;49.444;6.862;2023-11-19T00:48:40;2.70;;;2.10;;
60169;SDS011;46042;49.444;6.862;2023-11-19T00:51:07;2.90;;;2.03;;
60169;SDS011;46042;49.444;6.862;2023-11-19T00:53:34;1.92;;;1.77;;
60169;SDS011;46042;49.444;6.862;2023-11-19T00:56:00;2.40;;;1.70;;
60169;SDS011;46042;49.444;6.862;2023-11-19T00:58:27;1.83;;;1.52;;
60169;SDS011;46042;49.444;6.862;2023-11-19T01:00:54;4.00;;;2.50;;
60169;SDS011;46042;49.444;6.862;2023-11-19T01:03:20;3.17;;;2.22;;
60169;SDS011;46042;49.444;6.862;2023-11-19T01:05:47;5.03;;;2.58;;
60169;SDS011;46042;49.444;6.862;2023-11-19T01:08:14;2.60;;;2.20;;
60169;SDS011;46042;49.444;6.862;2023-11-19T01:10:42;3.70;;;2.25;;
60169;SDS011;46042;49.444;6.862;2023-11-19T01:13:09;3.50;;;2.08;;
60169;SDS011;46042;49.444;6.862;2023-11-19T01:15:36;2.53;;;1.92;;
60169;SDS011;46042;49.444;6.862;2023-11-19T01:18:03;5.95;;;2.20;;
60169;SDS011;46042;49.444;6.862;2023-11-19T01:20:31;3.08;;;2.00;;
60169;SDS011;46042;49.444;6.862;2023-11-19T01:23:00;2.90;;;2.15;;
60169;SDS011;46042;49.444;6.862;2023-11-19T01:25:27;2.88;;;2.22;;
60169;SDS011;46042;49.444;6.862;2023-11-19T01:27:54;4.80;;;3.08;;
60169;SDS011;46042;49.444;6.862;2023-11-19T01:30:20;10.48;;;3.13;;
60169;SDS011;46042;49.444;6.862;2023-11-19T01:32:47;5.43;;;2.83;;
60169;SDS011;46042;49.444;6.862;2023-11-19T01:35:13;4.15;;;2.83;;
60169;SDS011;46042;49.444;6.862;2023-11-19T01:37:40;4.15;;;2.88;;
60169;SDS011;46042;49.444;6.862;2023-11-19T01:40:07;4.57;;;2.90;;
60169;SDS011;46042;49.444;6.862;2023-11-19T01:42:37;3.75;;;2.60;;
60169;SDS011;46042;49.444;6.862;2023-11-19T01:45:05;3.95;;;2.78;;
60169;SDS011;46042;49.444;6.862;2023-11-19T01:50:03;8.23;;;2.65;;
60169;SDS011;46042;49.444;6.862;2023-11-19T01:52:36;2.45;;;2.22;;
60169;SDS011;46042;49.444;6.862;2023-11-19T01:55:04;3.30;;;2.10;;
60169;SDS011;46042;49.444;6.862;2023-11-19T01:57:33;3.50;;;2.45;;
60169;SDS011;46042;49.444;6.862;2023-11-19T02:00:03;6.53;;;2.42;;
60169;SDS011;46042;49.444;6.862;2023-11-19T02:02:30;3.55;;;2.53;;
60169;SDS011;46042;49.444;6.862;2023-11-19T02:04:58;7.80;;;2.75;;
60169;SDS011;46042;49.444;6.862;2023-11-19T02:07:24;4.30;;;2.92;;
60169;SDS011;46042;49.444;6.862;2023-11-19T02:09:51;6.13;;;3.33;;
60169;SDS011;46042;49.444;6.862;2023-11-19T02:12:18;4.53;;;2.88;;
60169;SDS011;46042;49.444;6.862;2023-11-19T02:14:47;3.50;;;2.75;;
60169;SDS011;46042;49.444;6.862;2023-11-19T02:17:29;4.30;;;2.60;;
60169;SDS011;46042;49.444;6.862;2023-11-19T02:20:01;2.58;;;2.17;;
60169;SDS011;46042;49.444;6.862;2023-11-19T02:22:27;3.10;;;1.98;;
60169;SDS011;46042;49.444;6.862;2023-11-19T02:24:54;3.33;;;2.13;;
60169;SDS011;46042;49.444;6.862;2023-11-19T02:30:13;3.00;;;1.90;;
60169;SDS011;46042;49.444;6.862;2023-11-19T02:32:41;2.40;;;2.10;;
60169;SDS011;46042;49.444;6.862;2023-11-19T02:35:08;2.92;;;2.10;;
60169;SDS011;46042;49.444;6.862;2023-11-19T02:37:35;3.10;;;2.17;;
60169;SDS011;46042;49.444;6.862;2023-11-19T02:40:02;4.55;;;2.42;;
60169;SDS011;46042;49.444;6.862;2023-11-19T02:42:30;3.25;;;2.08;;
60169;SDS011;46042;49.444;6.862;2023-11-19T02:44:57;2.60;;;1.90;;
60169;SDS011;46042;49.444;6.862;2023-11-19T02:47:24;2.15;;;1.95;;
60169;SDS011;46042;49.444;6.862;2023-11-19T02:49:56;1.70;;;1.60;;
60169;SDS011;46042;49.444;6.862;2023-11-19T02:52:24;2.03;;;1.48;;
60169;SDS011;46042;49.444;6.862;2023-11-19T02:54:51;1.83;;;1.33;;
60169;SDS011;46042;49.444;6.862;2023-11-19T02:57:18;2.00;;;1.58;;
60169;SDS011;46042;49.444;6.862;2023-11-19T02:59:48;2.53;;;1.50;;
60169;SDS011;46042;49.444;6.862;2023-11-19T03:02:15;1.40;;;1.30;;
60169;SDS011;46042;49.444;6.862;2023-11-19T03:04:44;3.53;;;1.30;;
60169;SDS011;46042;49.444;6.862;2023-11-19T03:07:12;1.63;;;1.50;;
60169;SDS011;46042;49.444;6.862;2023-11-19T03:09:40;2.42;;;1.90;;
60169;SDS011;46042;49.444;6.862;2023-11-19T03:12:07;2.53;;;1.58;;
60169;SDS011;46042;49.444;6.862;2023-11-19T03:14:34;2.83;;;2.05;;
60169;SDS011;46042;49.444;6.862;2023-11-19T03:17:01;2.05;;;1.30;;
60169;SDS011;46042;49.444;6.862;2023-11-19T03:19:29;7.10;;;2.00;;
60169;SDS011;46042;49.444;6.862;2023-11-19T03:21:56;2.63;;;1.58;;
60169;SDS011;46042;49.444;6.862;2023-11-19T03:24:23;3.63;;;1.60;;
60169;SDS011;46042;49.444;6.862;2023-11-19T03:26:50;4.20;;;1.88;;
60169;SDS011;46042;49.444;6.862;2023-11-19T03:29:17;3.10;;;1.98;;
60169;SDS011;46042;49.444;6.862;2023-11-19T03:31:44;2.58;;;1.52;;
60169;SDS011;46042;49.444;6.862;2023-11-19T03:34:11;2.58;;;1.80;;
60169;SDS011;46042;49.444;6.862;2023-11-19T03:36:37;2.20;;;1.58;;
60169;SDS011;46042;49.444;6.862;2023-11-19T03:39:04;1.73;;;1.40;;
60169;SDS011;46042;49.444;6.862;2023-11-19T03:41:31;1.60;;;1.50;;
60169;SDS011;46042;49.444;6.862;2023-11-19T03:44:01;1.88;;;1.52;;
60169;SDS011;46042;49.444;6.862;2023-11-19T03:46:27;4.00;;;1.58;;
60169;SDS011;46042;49.444;6.862;2023-11-19T03:48:56;1.38;;;1.27;;
60169;SDS011;46042;49.444;6.862;2023-11-19T03:51:23;2.67;;;1.60;;
60169;SDS011;46042;49.444;6.862;2023-11-19T03:53:50;2.42;;;1.20;;
60169;SDS011;46042;49.444;6.862;2023-11-19T03:56:16;2.90;;;1.42;;
60169;SDS011;46042;49.444;6.862;2023-11-19T03:58:43;4.80;;;1.45;;
60169;SDS011;46042;49.444;6.862;2023-11-19T04:01:13;5.03;;;1.33;;
60169;SDS011;46042;49.444;6.862;2023-11-19T04:03:40;1.33;;;1.23;;
60169;SDS011;46042;49.444;6.862;2023-11-19T04:06:16;4.45;;;1.65;;
60169;SDS011;46042;49.444;6.862;2023-11-19T04:08:43;3.60;;;1.40;;
60169;SDS011;46042;49.444;6.862;2023-11-19T04:11:10;3.95;;;1.30;;
60169;SDS011;46042;49.444;6.862;2023-11-19T04:13:37;3.10;;;1.42;;
60169;SDS011;46042;49.444;6.862;2023-11-19T04:16:04;1.50;;;1.40;;
60169;SDS011;46042;49.444;6.862;2023-11-19T04:18:31;3.72;;;1.33;;
60169;SDS011;46042;49.444;6.862;2023-11-19T04:20:58;3.60;;;1.42;;
60169;SDS011;46042;49.444;6.862;2023-11-19T04:23:25;3.10;;;1.50;;
60169;SDS011;46042;49.444;6.862;2023-11-19T04:25:51;1.45;;;1.35;;
60169;SDS011;46042;49.444;6.862;2023-11-19T04:28:18;2.00;;;1.38;;
60169;SDS011;46042;49.444;6.862;2023-11-19T04:30:45;1.92;;;1.45;;
60169;SDS011;46042;49.444;6.862;2023-11-19T04:33:11;4.97;;;1.55;;
60169;SDS011;46042;49.444;6.862;2023-11-19T04:35:38;3.30;;;1.35;;
60169;SDS011;46042;49.444;6.862;2023-11-19T04:38:05;4.43;;;2.05;;
60169;SDS011;46042;49.444;6.862;2023-11-19T04:40:32;3.22;;;1.48;;
60169;SDS011;46042;49.444;6.862;2023-11-19T04:43:00;7.13;;;1.50;;
60169;SDS011;46042;49.444;6.862;2023-11-19T04:45:27;3.85;;;1.55;;
60169;SDS011;46042;49.444;6.862;2023-11-19T04:47:53;3.15;;;1.38;;
60169;SDS011;46042;49.444;6.862;2023-11-19T04:50:20;16.67;;;2.55;;
60169;SDS011;46042;49.444;6.862;2023-11-19T04:52:48;2.40;;;1.45;;
60169;SDS011;46042;49.444;6.862;2023-11-19T04:55:14;4.10;;;1.30;;
60169;SDS011;46042;49.444;6.862;2023-11-19T04:57:41;2.33;;;1.30;;
60169;SDS011;46042;49.444;6.862;2023-11-19T05:00:09;5.43;;;1.42;;
60169;SDS011;46042;49.444;6.862;2023-11-19T05:05:07;4.53;;;1.58;;
60169;SDS011;46042;49.444;6.862;2023-11-19T05:07:35;2.33;;;1.20;;
60169;SDS011;46042;49.444;6.862;2023-11-19T05:10:02;5.95;;;1.35;;
60169;SDS011;46042;49.444;6.862;2023-11-19T05:12:30;1.95;;;1.10;;
60169;SDS011;46042;49.444;6.862;2023-11-19T05:14:57;2.70;;;1.30;;
60169;SDS011;46042;49.444;6.862;2023-11-19T05:17:24;2.17;;;1.38;;
60169;SDS011;46042;49.444;6.862;2023-11-19T05:19:51;6.15;;;1.50;;
60169;SDS011;46042;49.444;6.862;2023-11-19T05:22:18;3.58;;;1.75;;
60169;SDS011;46042;49.444;6.862;2023-11-19T05:24:47;3.47;;;1.50;;
60169;SDS011;46042;49.444;6.862;2023-11-19T05:27:14;3.33;;;1.33;;
60169;SDS011;46042;49.444;6.862;2023-11-19T05:29:41;1.45;;;1.15;;
60169;SDS011;46042;49.444;6.862;2023-11-19T05:32:09;6.32;;;1.55;;
60169;SDS011;46042;49.444;6.862;2023-11-19T05:34:36;1.73;;;1.05;;
60169;SDS011;46042;49.444;6.862;2023-11-19T05:37:03;3.65;;;1.48;;
60169;SDS011;46042;49.444;6.862;2023-11-19T05:39:31;5.20;;;1.30;;
60169;SDS011;46042;49.444;6.862;2023-11-19T05:41:58;2.75;;;1.55;;
60169;SDS011;46042;49.444;6.862;2023-11-19T05:44:25;1.85;;;1.10;;
60169;SDS011;46042;49.444;6.862;2023-11-19T05:46:52;2.53;;;1.30;;
60169;SDS011;46042;49.444;6.862;2023-11-19T05:49:18;3.00;;;1.10;;
60169;SDS011;46042;49.444;6.862;2023-11-19T05:51:45;4.85;;;1.40;;
60169;SDS011;46042;49.444;6.862;2023-11-19T05:54:12;3.35;;;1.00;;
60169;SDS011;46042;49.444;6.862;2023-11-19T05:56:39;2.75;;;1.20;;
60169;SDS011;46042;49.444;6.862;2023-11-19T05:59:07;1.77;;;1.17;;
60169;SDS011;46042;49.444;6.862;2023-11-19T06:01:41;6.97;;;1.42;;
60169;SDS011;46042;49.444;6.862;2023-11-19T06:04:08;2.00;;;1.30;;
60169;SDS011;46042;49.444;6.862;2023-11-19T06:06:35;4.75;;;1.42;;
60169;SDS011;46042;49.444;6.862;2023-11-19T06:09:03;5.07;;;1.40;;
60169;SDS011;46042;49.444;6.862;2023-11-19T06:11:33;5.30;;;1.33;;
60169;SDS011;46042;49.444;6.862;2023-11-19T06:14:00;3.15;;;1.40;;
60169;SDS011;46042;49.444;6.862;2023-11-19T06:16:27;2.33;;;1.40;;
60169;SDS011;46042;49.444;6.862;2023-11-19T06:18:53;3.90;;;1.40;;
60169;SDS011;46042;49.444;6.862;2023-11-19T06:21:20;3.60;;;1.52;;
60169;SDS011;46042;49.444;6.862;2023-11-19T06:23:47;5.60;;;1.20;;
60169;SDS011;46042;49.444;6.862;2023-11-19T06:26:15;4.65;;;2.17;;
60169;SDS011;46042;49.444;6.862;2023-11-19T06:28:42;4.13;;;1.60;;
60169;SDS011;46042;49.444;6.862;2023-11-19T06:31:09;4.22;;;1.55;;
60169;SDS011;46042;49.444;6.862;2023-11-19T06:33:35;6.32;;;1.65;;
60169;SDS011;46042;49.444;6.862;2023-11-19T06:36:02;7.30;;;1.52;;
60169;SDS011;46042;49.444;6.862;2023-11-19T06:38:29;4.80;;;1.17;;
60169;SDS011;46042;49.444;6.862;2023-11-19T06:40:55;3.78;;;1.40;;
60169;SDS011;46042;49.444;6.862;2023-11-19T06:43:22;2.00;;;1.10;;
60169;SDS011;46042;49.444;6.862;2023-11-19T06:45:49;2.70;;;1.33;;
60169;SDS011;46042;49.444;6.862;2023-11-19T06:48:15;1.58;;;1.15;;
60169;SDS011;46042;49.444;6.862;2023-11-19T06:50:42;1.80;;;1.50;;
60169;SDS011;46042;49.444;6.862;2023-11-19T06:53:09;2.63;;;1.33;;
60169;SDS011;46042;49.444;6.862;2023-11-19T06:55:36;3.05;;;1.05;;
60169;SDS011;46042;49.444;6.862;2023-11-19T06:58:03;1.98;;;1.20;;
60169;SDS011;46042;49.444;6.862;2023-11-19T07:00:31;2.88;;;1.23;;
60169;SDS011;46042;49.444;6.862;2023-11-19T07:02:59;2.08;;;1.30;;
60169;SDS011;46042;49.444;6.862;2023-11-19T07:05:26;3.67;;;1.70;;
60169;SDS011;46042;49.444;6.862;2023-11-19T07:07:54;3.22;;;1.30;;
60169;SDS011;46042;49.444;6.862;2023-11-19T07:10:22;2.17;;;1.50;;
60169;SDS011;46042;49.444;6.862;2023-11-19T07:12:49;6.00;;;1.80;;
60169;SDS011;46042;49.444;6.862;2023-11-19T07:15:16;10.38;;;1.85;;
60169;SDS011;46042;49.444;6.862;2023-11-19T07:17:44;7.30;;;2.10;;
60169;SDS011;46042;49.444;6.862;2023-11-19T07:20:11;3.38;;;1.70;;
60169;SDS011;46042;49.444;6.862;2023-11-19T07:22:43;6.03;;;2.78;;
60169;SDS011;46042;49.444;6.862;2023-11-19T07:25:15;3.75;;;2.17;;
60169;SDS011;46042;49.444;6.862;2023-11-19T07:27:42;7.05;;;2.50;;
60169;SDS011;46042;49.444;6.862;2023-11-19T07:30:09;5.00;;;3.03;;
60169;SDS011;46042;49.444;6.862;2023-11-19T07:32:36;6.97;;;2.65;;
60169;SDS011;46042;49.444;6.862;2023-11-19T07:35:05;5.13;;;2.00;;
60169;SDS011;46042;49.444;6.862;2023-11-19T07:37:33;5.63;;;1.75;;
60169;SDS011;46042;49.444;6.862;2023-11-19T07:39:59;3.20;;;1.83;;
60169;SDS011;46042;49.444;6.862;2023-11-19T07:42:26;9.40;;;1.83;;
60169;SDS011;46042;49.444;6.862;2023-11-19T07:44:53;3.75;;;1.83;;
60169;SDS011;46042;49.444;6.862;2023-11-19T07:47:21;7.60;;;2.13;;
60169;SDS011;46042;49.444;6.862;2023-11-19T07:49:50;4.32;;;1.83;;
60169;SDS011;46042;49.444;6.862;2023-11-19T07:52:17;4.57;;;2.40;;
60169;SDS011;46042;49.444;6.862;2023-11-19T07:54:46;5.40;;;2.00;;
60169;SDS011;46042;49.444;6.862;2023-11-19T07:57:13;5.25;;;1.95;;
60169;SDS011;46042;49.444;6.862;2023-11-19T07:59:40;5.13;;;1.90;;
60169;SDS011;46042;49.444;6.862;2023-11-19T08:02:07;4.82;;;1.85;;
60169;SDS011;46042;49.444;6.862;2023-11-19T08:04:34;7.53;;;1.98;;
60169;SDS011;46042;49.444;6.862;2023-11-19T08:07:01;8.40;;;2.70;;
60169;SDS011;46042;49.444;6.862;2023-11-19T08:09:28;6.13;;;2.13;;
60169;SDS011;46042;49.444;6.862;2023-11-19T08:11:55;12.77;;;2.65;;
60169;SDS011;46042;49.444;6.862;2023-11-19T08:14:22;3.50;;;1.90;;
60169;SDS011;46042;49.444;6.862;2023-11-19T08:16:50;2.75;;;1.58;;
60169;SDS011;46042;49.444;6.862;2023-11-19T08:19:17;4.30;;;1.48;;
60169;SDS011;46042;49.444;6.862;2023-11-19T08:21:44;4.90;;;1.95;;
60169;SDS011;46042;49.444;6.862;2023-11-19T08:24:11;14.23;;;2.20;;
60169;SDS011;46042;49.444;6.862;2023-11-19T08:26:37;4.05;;;2.08;;
60169;SDS011;46042;49.444;6.862;2023-11-19T08:29:05;4.75;;;1.88;;
60169;SDS011;46042;49.444;6.862;2023-11-19T08:31:32;3.70;;;1.52;;
60169;SDS011;46042;49.444;6.862;2023-11-19T08:33:58;4.18;;;2.10;;
60169;SDS011;46042;49.444;6.862;2023-11-19T08:36:25;8.20;;;2.10;;
60169;SDS011;46042;49.444;6.862;2023-11-19T08:38:53;4.47;;;1.88;;
60169;SDS011;46042;49.444;6.862;2023-11-19T08:41:21;6.10;;;1.60;;
60169;SDS011;46042;49.444;6.862;2023-11-19T08:43:48;7.40;;;2.08;;
60169;SDS011;46042;49.444;6.862;2023-11-19T08:46:14;4.43;;;1.60;;
60169;SDS011;46042;49.444;6.862;2023-11-19T08:48:41;4.57;;;1.35;;
60169;SDS011;46042;49.444;6.862;2023-11-19T08:51:08;7.82;;;2.25;;
60169;SDS011;46042;49.444;6.862;2023-11-19T08:53:35;3.65;;;1.65;;
60169;SDS011;46042;49.444;6.862;2023-11-19T08:56:02;3.55;;;1.52;;
60169;SDS011;46042;49.444;6.862;2023-11-19T08:58:30;4.05;;;1.73;;
60169;SDS011;46042;49.444;6.862;2023-11-19T09:00:57;10.07;;;1.52;;
60169;SDS011;46042;49.444;6.862;2023-11-19T09:03:24;4.35;;;2.08;;
60169;SDS011;46042;49.444;6.862;2023-11-19T09:05:56;5.47;;;2.35;;
60169;SDS011;46042;49.444;6.862;2023-11-19T09:08:23;13.35;;;3.45;;
60169;SDS011;46042;49.444;6.862;2023-11-19T09:10:50;2.80;;;1.75;;
60169;SDS011;46042;49.444;6.862;2023-11-19T09:13:17;4.75;;;2.10;;
60169;SDS011;46042;49.444;6.862;2023-11-19T09:15:44;2.75;;;1.58;;
60169;SDS011;46042;49.444;6.862;2023-11-19T09:18:11;7.65;;;1.33;;
60169;SDS011;46042;49.444;6.862;2023-11-19T09:20:38;4.22;;;1.65;;
60169;SDS011;46042;49.444;6.862;2023-11-19T09:23:05;6.20;;;1.48;;
60169;SDS011;46042;49.444;6.862;2023-11-19T09:25:33;3.88;;;1.65;;
60169;SDS011;46042;49.444;6.862;2023-11-19T09:28:03;7.23;;;1.70;;
60169;SDS011;46042;49.444;6.862;2023-11-19T09:30:30;4.90;;;1.40;;
60169;SDS011;46042;49.444;6.862;2023-11-19T09:33:00;7.27;;;1.90;;
60169;SDS011;46042;49.444;6.862;2023-11-19T09:35:27;7.07;;;2.08;;
60169;SDS011;46042;49.444;6.862;2023-11-19T09:37:54;5.60;;;1.52;;
60169;SDS011;46042;49.444;6.862;2023-11-19T09:40:20;7.68;;;1.90;;
60169;SDS011;46042;49.444;6.862;2023-11-19T09:42:47;4.68;;;2.03;;
60169;SDS011;46042;49.444;6.862;2023-11-19T09:45:15;5.82;;;1.52;;
60169;SDS011;46042;49.444;6.862;2023-11-19T09:47:43;5.65;;;1.52;;
60169;SDS011;46042;49.444;6.862;2023-11-19T09:50:15;4.15;;;1.50;;
60169;SDS011;46042;49.444;6.862;2023-11-19T09:52:47;3.83;;;1.58;;
60169;SDS011;46042;49.444;6.862;2023-11-19T09:55:14;4.35;;;1.52;;
60169;SDS011;46042;49.444;6.862;2023-11-19T09:57:41;7.47;;;2.17;;
60169;SDS011;46042;49.444;6.862;2023-11-19T10:00:08;5.22;;;1.50;;
60169;SDS011;46042;49.444;6.862;2023-11-19T10:02:37;6.32;;;1.92;;
60169;SDS011;46042;49.444;6.862;2023-11-19T10:05:06;7.43;;;2.33;;
60169;SDS011;46042;49.444;6.862;2023-11-19T10:07:34;8.13;;;2.13;;
60169;SDS011;46042;49.444;6.862;2023-11-19T10:10:01;5.18;;;1.80;;
60169;SDS011;46042;49.444;6.862;2023-11-19T10:12:30;6.22;;;1.92;;
60169;SDS011;46042;49.444;6.862;2023-11-19T10:14:58;4.03;;;1.75;;
60169;SDS011;46042;49.444;6.862;2023-11-19T10:17:28;5.25;;;1.52;;
60169;SDS011;46042;49.444;6.862;2023-11-19T10:19:59;7.70;;;1.90;;
60169;SDS011;46042;49.444;6.862;2023-11-19T10:22:27;6.90;;;2.00;;
60169;SDS011;46042;49.444;6.862;2023-11-19T10:24:53;5.03;;;1.60;;
60169;SDS011;46042;49.444;6.862;2023-11-19T10:27:23;6.80;;;2.00;;
60169;SDS011;46042;49.444;6.862;2023-11-19T10:29:52;8.10;;;1.85;;
60169;SDS011;46042;49.444;6.862;2023-11-19T10:32:21;5.68;;;1.80;;
60169;SDS011;46042;49.444;6.862;2023-11-19T10:34:57;10.20;;;2.47;;
60169;SDS011;46042;49.444;6.862;2023-11-19T10:37:31;3.95;;;1.85;;
60169;SDS011;46042;49.444;6.862;2023-11-19T10:39:59;6.53;;;1.48;;
60169;SDS011;46042;49.444;6.862;2023-11-19T10:42:26;4.80;;;1.83;;
60169;SDS011;46042;49.444;6.862;2023-11-19T10:44:53;9.18;;;2.40;;
60169;SDS011;46042;49.444;6.862;2023-11-19T10:47:19;8.65;;;1.52;;
60169;SDS011;46042;49.444;6.862;2023-11-19T10:49:51;5.22;;;1.42;;
60169;SDS011;46042;49.444;6.862;2023-11-19T10:52:18;6.82;;;1.55;;
60169;SDS011;46042;49.444;6.862;2023-11-19T10:54:49;5.00;;;1.73;;
60169;SDS011;46042;49.444;6.862;2023-11-19T10:57:20;4.82;;;1.85;;
60169;SDS011;46042;49.444;6.862;2023-11-19T10:59:52;3.33;;;1.42;;
60169;SDS011;46042;49.444;6.862;2023-11-19T11:02:22;6.57;;;1.90;;
60169;SDS011;46042;49.444;6.862;2023-11-19T11:04:53;4.47;;;1.77;;
60169;SDS011;46042;49.444;6.862;2023-11-19T11:07:21;4.63;;;1.75;;
60169;SDS011;46042;49.444;6.862;2023-11-19T11:10:02;3.85;;;1.33;;
60169;SDS011;46042;49.444;6.862;2023-11-19T11:12:32;9.05;;;1.60;;
60169;SDS011;46042;49.444;6.862;2023-11-19T11:15:03;8.15;;;2.20;;
60169;SDS011;46042;49.444;6.862;2023-11-19T11:17:32;6.85;;;1.77;;
60169;SDS011;46042;49.444;6.862;2023-11-19T11:20:01;7.20;;;1.85;;
60169;SDS011;46042;49.444;6.862;2023-11-19T11:22:29;5.93;;;1.70;;
60169;SDS011;46042;49.444;6.862;2023-11-19T11:25:29;5.15;;;2.17;;
60169;SDS011;46042;49.444;6.862;2023-11-19T11:28:01;9.73;;;2.28;;
60169;SDS011;46042;49.444;6.862;2023-11-19T11:35:53;6.43;;;1.45;;
60169;SDS011;46042;49.444;6.862;2023-11-19T11:38:31;4.03;;;1.48;;
60169;SDS011;46042;49.444;6.862;2023-11-19T11:41:14;3.25;;;1.55;;
60169;SDS011;46042;49.444;6.862;2023-11-19T11:43:54;5.15;;;1.23;;
60169;SDS011;46042;49.444;6.862;2023-11-19T12:02:15;7.80;;;2.15;;
60169;SDS011;46042;49.444;6.862;2023-11-19T12:04:49;11.25;;;2.08;;
60169;SDS011;46042;49.444;6.862;2023-11-19T12:07:19;5.30;;;1.73;;
60169;SDS011;46042;49.444;6.862;2023-11-19T12:09:52;10.25;;;2.17;;
60169;SDS011;46042;49.444;6.862;2023-11-19T12:12:23;7.32;;;1.77;;
60169;SDS011;46042;49.444;6.862;2023-11-19T12:18:08;6.47;;;1.80;;
60169;SDS011;46042;49.444;6.862;2023-11-19T12:20:17;5.28;;;1.73;;
60169;SDS011;46042;49.444;6.862;2023-11-19T12:23:00;5.50;;;1.92;;
60169;SDS011;46042;49.444;6.862;2023-11-19T12:25:33;9.73;;;1.55;;
60169;SDS011;46042;49.444;6.862;2023-11-19T12:28:00;6.80;;;1.90;;
60169;SDS011;46042;49.444;6.862;2023-11-19T12:30:30;10.60;;;4.45;;
60169;SDS011;46042;49.444;6.862;2023-11-19T12:32:57;9.80;;;3.40;;
60169;SDS011;46042;49.444;6.862;2023-11-19T12:35:25;6.45;;;1.90;;
60169;SDS011;46042;49.444;6.862;2023-11-19T12:37:52;6.97;;;1.90;;
60169;SDS011;46042;49.444;6.862;2023-11-19T12:40:22;4.53;;;1.63;;
60169;SDS011;46042;49.444;6.862;2023-11-19T12:42:51;6.03;;;1.75;;
60169;SDS011;46042;49.444;6.862;2023-11-19T12:45:20;3.78;;;1.48;;
60169;SDS011;46042;49.444;6.862;2023-11-19T12:47:48;6.72;;;1.92;;
60169;SDS011;46042;49.444;6.862;2023-11-19T12:50:16;5.65;;;1.67;;
60169;SDS011;46042;49.444;6.862;2023-11-19T12:52:55;5.82;;;1.30;;
60169;SDS011;46042;49.444;6.862;2023-11-19T12:55:27;4.18;;;1.60;;
60169;SDS011;46042;49.444;6.862;2023-11-19T12:57:56;5.93;;;2.00;;
60169;SDS011;46042;49.444;6.862;2023-11-19T13:00:26;7.40;;;1.92;;
60169;SDS011;46042;49.444;6.862;2023-11-19T13:02:56;4.65;;;1.90;;
60169;SDS011;46042;49.444;6.862;2023-11-19T13:05:24;4.20;;;1.65;;
60169;SDS011;46042;49.444;6.862;2023-11-19T13:08:02;5.50;;;1.75;;
60169;SDS011;46042;49.444;6.862;2023-11-19T13:10:29;5.72;;;1.75;;
60169;SDS011;46042;49.444;6.862;2023-11-19T13:13:03;7.70;;;2.15;;
60169;SDS011;46042;49.444;6.862;2023-11-19T13:15:35;4.55;;;1.42;;
60169;SDS011;46042;49.444;6.862;2023-11-19T13:18:02;7.78;;;1.70;;
60169;SDS011;46042;49.444;6.862;2023-11-19T13:20:29;4.85;;;1.50;;
60169;SDS011;46042;49.444;6.862;2023-11-19T13:27:54;4.68;;;1.60;;
60169;SDS011;46042;49.444;6.862;2023-11-19T13:30:22;3.85;;;1.52;;
60169;SDS011;46042;49.444;6.862;2023-11-19T13:32:52;3.72;;;1.83;;
60169;SDS011;46042;49.444;6.862;2023-11-19T13:35:22;4.57;;;1.50;;
60169;SDS011;46042;49.444;6.862;2023-11-19T13:37:49;4.00;;;1.50;;
60169;SDS011;46042;49.444;6.862;2023-11-19T13:40:18;4.72;;;1.30;;
60169;SDS011;46042;49.444;6.862;2023-11-19T13:42:46;4.28;;;1.50;;
60169;SDS011;46042;49.444;6.862;2023-11-19T13:45:13;6.05;;;1.75;;
60169;SDS011;46042;49.444;6.862;2023-11-19T13:47:41;8.40;;;1.90;;
60169;SDS011;46042;49.444;6.862;2023-11-19T13:50:13;7.38;;;2.13;;
60169;SDS011;46042;49.444;6.862;2023-11-19T13:52:41;3.92;;;1.55;;
60169;SDS011;46042;49.444;6.862;2023-11-19T13:55:11;6.70;;;1.67;;
60169;SDS011;46042;49.444;6.862;2023-11-19T13:57:39;6.43;;;1.90;;
60169;SDS011;46042;49.444;6.862;2023-11-19T14:00:07;1.95;;;1.13;;
60169;SDS011;46042;49.444;6.862;2023-11-19T14:02:50;6.85;;;1.95;;
60169;SDS011;46042;49.444;6.862;2023-11-19T14:05:17;5.25;;;1.65;;
60169;SDS011;46042;49.444;6.862;2023-11-19T14:08:03;9.05;;;1.98;;
60169;SDS011;46042;49.444;6.862;2023-11-19T14:10:49;13.38;;;1.88;;
60169;SDS011;46042;49.444;6.862;2023-11-19T14:13:16;6.03;;;1.65;;
60169;SDS011;46042;49.444;6.862;2023-11-19T14:15:43;4.07;;;1.50;;
60169;SDS011;46042;49.444;6.862;2023-11-19T14:18:13;4.07;;;1.80;;
60169;SDS011;46042;49.444;6.862;2023-11-19T14:20:40;4.63;;;2.10;;
60169;SDS011;46042;49.444;6.862;2023-11-19T14:23:06;8.77;;;1.85;;
60169;SDS011;46042;49.444;6.862;2023-11-19T14:25:33;8.73;;;1.80;;
60169;SDS011;46042;49.444;6.862;2023-11-19T14:28:00;6.93;;;1.90;;
60169;SDS011;46042;49.444;6.862;2023-11-19T14:30:29;7.85;;;1.92;;
60169;SDS011;46042;49.444;6.862;2023-11-19T14:32:55;7.18;;;2.17;;
60169;SDS011;46042;49.444;6.862;2023-11-19T14:35:22;6.25;;;1.70;;
60169;SDS011;46042;49.444;6.862;2023-11-19T14:37:49;5.47;;;1.92;;
60169;SDS011;46042;49.444;6.862;2023-11-19T14:40:16;6.13;;;1.65;;
60169;SDS011;46042;49.444;6.862;2023-11-19T14:42:42;4.45;;;2.00;;
60169;SDS011;46042;49.444;6.862;2023-11-19T14:45:09;3.67;;;1.58;;
60169;SDS011;46042;49.444;6.862;2023-11-19T14:47:38;6.07;;;1.70;;
60169;SDS011;46042;49.444;6.862;2023-11-19T14:50:06;7.93;;;2.25;;
60169;SDS011;46042;49.444;6.862;2023-11-19T14:52:34;6.85;;;1.55;;
60169;SDS011;46042;49.444;6.862;2023-11-19T14:55:02;2.92;;;1.40;;
60169;SDS011;46042;49.444;6.862;2023-11-19T14:57:29;8.25;;;2.25;;
60169;SDS011;46042;49.444;6.862;2023-11-19T14:59:56;7.85;;;2.05;;
60169;SDS011;46042;49.444;6.862;2023-11-19T15:02:23;9.30;;;2.67;;
60169;SDS011;46042;49.444;6.862;2023-11-19T15:04:49;7.20;;;1.80;;
60169;SDS011;46042;49.444;6.862;2023-11-19T15:07:16;5.65;;;1.70;;
60169;SDS011;46042;49.444;6.862;2023-11-19T15:09:43;8.27;;;2.13;;
60169;SDS011;46042;49.444;6.862;2023-11-19T15:12:10;7.50;;;2.05;;
60169;SDS011;46042;49.444;6.862;2023-11-19T15:14:37;4.97;;;2.17;;
60169;SDS011;46042;49.444;6.862;2023-11-19T15:17:04;4.88;;;1.40;;
60169;SDS011;46042;49.444;6.862;2023-11-19T15:19:32;7.47;;;2.08;;
60169;SDS011;46042;49.444;6.862;2023-11-19T15:21:58;7.30;;;2.38;;
60169;SDS011;46042;49.444;6.862;2023-11-19T15:24:25;4.40;;;1.77;;
60169;SDS011;46042;49.444;6.862;2023-11-19T15:26:52;6.93;;;1.90;;
60169;SDS011;46042;49.444;6.862;2023-11-19T15:29:18;4.72;;;1.52;;
60169;SDS011;46042;49.444;6.862;2023-11-19T15:31:48;7.75;;;1.80;;